sensor_id;sensor_type;location;lat;lon;timestamp;temperature;humidity
70550;DHT22;58101;48.658;2.328;2023-05-18T00:02:15;12.40;84.60
70550;DHT22;58101;48.658;2.328;2023-05-18T00:04:41;12.50;85.30
70550;DHT22;58101;48.658;2.328;2023-05-18T00:07:07;12.30;85.60
70550;DHT22;58101;48.658;2.328;2023-05-18T00:09:34;12.30;85.20
70550;DHT22;58101;48.658;2.328;2023-05-18T00:12:02;12.20;87.10
70550;DHT22;58101;48.658;2.328;2023-05-18T00:14:28;12.20;86.60
70550;DHT22;58101;48.658;2.328;2023-05-18T00:16:53;12.20;88.40
70550;DHT22;58101;48.658;2.328;2023-05-18T00:19:20;12.10;87.60
70550;DHT22;58101;48.658;2.328;2023-05-18T00:21:46;12.20;87.60
70550;DHT22;58101;48.658;2.328;2023-05-18T00:24:13;12.10;88.20
70550;DHT22;58101;48.658;2.328;2023-05-18T00:26:40;12.10;88.10
70550;DHT22;58101;48.658;2.328;2023-05-18T00:29:06;12.10;88.10
70550;DHT22;58101;48.658;2.328;2023-05-18T00:31:32;12.10;89.70
70550;DHT22;58101;48.658;2.328;2023-05-18T00:34:06;12.00;90.10
70550;DHT22;58101;48.658;2.328;2023-05-18T00:36:32;12.00;90.20
70550;DHT22;58101;48.658;2.328;2023-05-18T00:38:58;12.00;90.00
70550;DHT22;58101;48.658;2.328;2023-05-18T00:41:25;12.00;90.50
70550;DHT22;58101;48.658;2.328;2023-05-18T00:43:55;11.90;90.50
70550;DHT22;58101;48.658;2.328;2023-05-18T00:46:22;12.00;91.20
70550;DHT22;58101;48.658;2.328;2023-05-18T00:48:52;11.90;91.70
70550;DHT22;58101;48.658;2.328;2023-05-18T00:51:20;12.00;91.40
70550;DHT22;58101;48.658;2.328;2023-05-18T00:53:48;11.80;92.50
70550;DHT22;58101;48.658;2.328;2023-05-18T00:56:15;12.00;92.50
70550;DHT22;58101;48.658;2.328;2023-05-18T00:58:41;11.80;93.00
70550;DHT22;58101;48.658;2.328;2023-05-18T01:01:08;11.70;93.50
70550;DHT22;58101;48.658;2.328;2023-05-18T01:03:36;11.70;93.70
70550;DHT22;58101;48.658;2.328;2023-05-18T01:06:06;11.70;94.30
70550;DHT22;58101;48.658;2.328;2023-05-18T01:08:33;11.70;94.20
70550;DHT22;58101;48.658;2.328;2023-05-18T01:11:20;11.60;94.40
70550;DHT22;58101;48.658;2.328;2023-05-18T01:14:10;11.60;94.60
70550;DHT22;58101;48.658;2.328;2023-05-18T01:16:54;11.60;94.90
70550;DHT22;58101;48.658;2.328;2023-05-18T01:21:56;11.60;95.20
70550;DHT22;58101;48.658;2.328;2023-05-18T01:24:40;11.60;95.70
70550;DHT22;58101;48.658;2.328;2023-05-18T01:27:07;11.60;96.30
70550;DHT22;58101;48.658;2.328;2023-05-18T01:29:34;11.60;96.60
70550;DHT22;58101;48.658;2.328;2023-05-18T01:32:06;11.50;96.50
70550;DHT22;58101;48.658;2.328;2023-05-18T01:34:31;11.50;96.40
70550;DHT22;58101;48.658;2.328;2023-05-18T01:36:57;11.40;97.00
70550;DHT22;58101;48.658;2.328;2023-05-18T01:39:23;11.40;96.70
70550;DHT22;58101;48.658;2.328;2023-05-18T01:41:57;11.50;96.90
70550;DHT22;58101;48.658;2.328;2023-05-18T01:44:38;11.50;97.70
70550;DHT22;58101;48.658;2.328;2023-05-18T01:47:11;11.40;98.30
70550;DHT22;58101;48.658;2.328;2023-05-18T01:52:53;11.30;98.40
70550;DHT22;58101;48.658;2.328;2023-05-18T01:55:23;11.30;98.50
70550;DHT22;58101;48.658;2.328;2023-05-18T01:57:51;11.30;98.60
70550;DHT22;58101;48.658;2.328;2023-05-18T02:00:19;11.20;98.80
70550;DHT22;58101;48.658;2.328;2023-05-18T02:02:45;11.20;99.40
70550;DHT22;58101;48.658;2.328;2023-05-18T02:05:10;11.20;99.20
70550;DHT22;58101;48.658;2.328;2023-05-18T02:07:39;11.20;99.40
70550;DHT22;58101;48.658;2.328;2023-05-18T02:10:06;11.10;99.80
70550;DHT22;58101;48.658;2.328;2023-05-18T02:12:32;11.10;99.90
70550;DHT22;58101;48.658;2.328;2023-05-18T02:14:57;11.10;99.90
70550;DHT22;58101;48.658;2.328;2023-05-18T02:17:25;11.10;99.90
70550;DHT22;58101;48.658;2.328;2023-05-18T02:19:51;11.10;99.90
70550;DHT22;58101;48.658;2.328;2023-05-18T02:22:17;11.10;99.90
70550;DHT22;58101;48.658;2.328;2023-05-18T02:24:42;11.00;99.90
70550;DHT22;58101;48.658;2.328;2023-05-18T02:27:10;11.00;99.90
70550;DHT22;58101;48.658;2.328;2023-05-18T02:29:41;11.00;99.90
70550;DHT22;58101;48.658;2.328;2023-05-18T02:32:06;11.00;99.90
70550;DHT22;58101;48.658;2.328;2023-05-18T02:34:32;10.90;99.90
70550;DHT22;58101;48.658;2.328;2023-05-18T02:37:00;10.80;99.90
70550;DHT22;58101;48.658;2.328;2023-05-18T02:39:28;10.90;99.90
70550;DHT22;58101;48.658;2.328;2023-05-18T02:41:54;10.90;99.90
70550;DHT22;58101;48.658;2.328;2023-05-18T02:44:20;10.80;99.90
70550;DHT22;58101;48.658;2.328;2023-05-18T02:46:46;10.80;99.90
70550;DHT22;58101;48.658;2.328;2023-05-18T02:49:13;10.80;99.90
70550;DHT22;58101;48.658;2.328;2023-05-18T02:51:38;10.70;99.90
70550;DHT22;58101;48.658;2.328;2023-05-18T02:54:04;10.70;99.90
70550;DHT22;58101;48.658;2.328;2023-05-18T02:56:30;10.70;99.90
70550;DHT22;58101;48.658;2.328;2023-05-18T02:58:58;10.70;99.90
70550;DHT22;58101;48.658;2.328;2023-05-18T03:01:25;10.70;99.90
70550;DHT22;58101;48.658;2.328;2023-05-18T03:03:55;10.70;99.90
70550;DHT22;58101;48.658;2.328;2023-05-18T03:06:24;10.60;99.90
70550;DHT22;58101;48.658;2.328;2023-05-18T03:08:53;10.60;99.90
70550;DHT22;58101;48.658;2.328;2023-05-18T03:11:22;10.60;99.90
70550;DHT22;58101;48.658;2.328;2023-05-18T03:13:48;10.70;99.90
70550;DHT22;58101;48.658;2.328;2023-05-18T03:16:14;10.50;99.90
70550;DHT22;58101;48.658;2.328;2023-05-18T03:18:40;10.50;99.90
70550;DHT22;58101;48.658;2.328;2023-05-18T03:21:07;10.50;99.90
70550;DHT22;58101;48.658;2.328;2023-05-18T03:23:33;10.50;99.90
70550;DHT22;58101;48.658;2.328;2023-05-18T03:25:59;10.40;99.90
70550;DHT22;58101;48.658;2.328;2023-05-18T03:28:27;10.40;99.90
70550;DHT22;58101;48.658;2.328;2023-05-18T03:30:53;10.40;99.90
70550;DHT22;58101;48.658;2.328;2023-05-18T03:33:18;10.40;99.90
70550;DHT22;58101;48.658;2.328;2023-05-18T03:35:44;10.40;99.90
70550;DHT22;58101;48.658;2.328;2023-05-18T03:38:10;10.30;99.90
70550;DHT22;58101;48.658;2.328;2023-05-18T03:40:36;10.30;99.90
70550;DHT22;58101;48.658;2.328;2023-05-18T03:43:01;10.30;99.90
70550;DHT22;58101;48.658;2.328;2023-05-18T03:45:27;10.30;99.90
70550;DHT22;58101;48.658;2.328;2023-05-18T03:47:53;10.30;99.90
70550;DHT22;58101;48.658;2.328;2023-05-18T03:50:18;10.30;99.90
70550;DHT22;58101;48.658;2.328;2023-05-18T03:52:44;10.30;99.90
70550;DHT22;58101;48.658;2.328;2023-05-18T03:55:10;10.20;99.90
70550;DHT22;58101;48.658;2.328;2023-05-18T03:57:36;10.20;99.90
70550;DHT22;58101;48.658;2.328;2023-05-18T04:00:04;10.20;99.90
70550;DHT22;58101;48.658;2.328;2023-05-18T04:02:32;10.20;99.90
70550;DHT22;58101;48.658;2.328;2023-05-18T04:04:57;10.20;99.90
70550;DHT22;58101;48.658;2.328;2023-05-18T04:07:23;10.20;99.90
70550;DHT22;58101;48.658;2.328;2023-05-18T04:09:50;10.20;99.90
70550;DHT22;58101;48.658;2.328;2023-05-18T04:12:16;10.20;99.90
70550;DHT22;58101;48.658;2.328;2023-05-18T04:14:42;10.20;99.90
70550;DHT22;58101;48.658;2.328;2023-05-18T04:17:07;10.20;99.90
70550;DHT22;58101;48.658;2.328;2023-05-18T04:19:35;10.20;99.90
70550;DHT22;58101;48.658;2.328;2023-05-18T04:22:02;10.20;99.90
70550;DHT22;58101;48.658;2.328;2023-05-18T04:24:31;10.20;99.90
70550;DHT22;58101;48.658;2.328;2023-05-18T04:27:00;10.30;99.90
70550;DHT22;58101;48.658;2.328;2023-05-18T04:29:28;10.40;99.90
70550;DHT22;58101;48.658;2.328;2023-05-18T04:31:54;10.30;99.90
70550;DHT22;58101;48.658;2.328;2023-05-18T04:34:26;10.30;99.90
70550;DHT22;58101;48.658;2.328;2023-05-18T04:36:57;10.30;99.90
70550;DHT22;58101;48.658;2.328;2023-05-18T04:39:24;10.40;99.90
70550;DHT22;58101;48.658;2.328;2023-05-18T04:41:50;10.30;99.90
70550;DHT22;58101;48.658;2.328;2023-05-18T04:44:31;10.40;99.90
70550;DHT22;58101;48.658;2.328;2023-05-18T04:47:01;10.50;99.90
70550;DHT22;58101;48.658;2.328;2023-05-18T04:49:27;10.30;99.90
70550;DHT22;58101;48.658;2.328;2023-05-18T04:51:54;10.40;99.90
70550;DHT22;58101;48.658;2.328;2023-05-18T04:54:23;10.50;99.90
70550;DHT22;58101;48.658;2.328;2023-05-18T04:56:50;10.50;99.90
70550;DHT22;58101;48.658;2.328;2023-05-18T04:59:16;10.60;99.90
70550;DHT22;58101;48.658;2.328;2023-05-18T05:01:42;10.70;99.90
70550;DHT22;58101;48.658;2.328;2023-05-18T05:04:07;10.70;99.90
70550;DHT22;58101;48.658;2.328;2023-05-18T05:06:33;10.80;99.90
70550;DHT22;58101;48.658;2.328;2023-05-18T05:08:59;10.70;99.90
70550;DHT22;58101;48.658;2.328;2023-05-18T05:11:27;10.70;99.90
70550;DHT22;58101;48.658;2.328;2023-05-18T05:13:53;10.70;99.90
70550;DHT22;58101;48.658;2.328;2023-05-18T05:16:18;10.70;99.90
70550;DHT22;58101;48.658;2.328;2023-05-18T05:18:44;10.70;99.90
70550;DHT22;58101;48.658;2.328;2023-05-18T05:21:10;10.80;99.90
70550;DHT22;58101;48.658;2.328;2023-05-18T05:23:35;10.80;99.90
70550;DHT22;58101;48.658;2.328;2023-05-18T05:26:01;10.80;99.90
70550;DHT22;58101;48.658;2.328;2023-05-18T05:28:27;10.90;99.90
70550;DHT22;58101;48.658;2.328;2023-05-18T05:30:52;10.90;99.90
70550;DHT22;58101;48.658;2.328;2023-05-18T05:33:18;10.90;99.90
70550;DHT22;58101;48.658;2.328;2023-05-18T05:35:44;11.00;99.90
70550;DHT22;58101;48.658;2.328;2023-05-18T05:38:09;11.10;99.90
70550;DHT22;58101;48.658;2.328;2023-05-18T05:40:35;11.20;99.90
70550;DHT22;58101;48.658;2.328;2023-05-18T05:43:01;11.30;99.90
70550;DHT22;58101;48.658;2.328;2023-05-18T05:45:27;11.20;99.90
70550;DHT22;58101;48.658;2.328;2023-05-18T05:47:53;11.40;99.90
70550;DHT22;58101;48.658;2.328;2023-05-18T05:50:18;11.40;99.90
70550;DHT22;58101;48.658;2.328;2023-05-18T05:52:44;11.50;99.90
70550;DHT22;58101;48.658;2.328;2023-05-18T05:55:10;11.60;99.90
70550;DHT22;58101;48.658;2.328;2023-05-18T05:57:35;11.60;99.90
70550;DHT22;58101;48.658;2.328;2023-05-18T06:00:01;11.70;99.90
70550;DHT22;58101;48.658;2.328;2023-05-18T06:02:28;11.70;99.90
70550;DHT22;58101;48.658;2.328;2023-05-18T06:04:54;11.70;99.90
70550;DHT22;58101;48.658;2.328;2023-05-18T06:07:20;11.70;99.90
70550;DHT22;58101;48.658;2.328;2023-05-18T06:09:46;11.80;99.90
70550;DHT22;58101;48.658;2.328;2023-05-18T06:12:11;11.90;98.90
70550;DHT22;58101;48.658;2.328;2023-05-18T06:14:37;12.00;98.40
70550;DHT22;58101;48.658;2.328;2023-05-18T06:17:03;11.90;98.10
70550;DHT22;58101;48.658;2.328;2023-05-18T06:19:28;12.00;98.20
70550;DHT22;58101;48.658;2.328;2023-05-18T06:21:54;12.10;97.70
70550;DHT22;58101;48.658;2.328;2023-05-18T06:24:20;12.10;99.50
70550;DHT22;58101;48.658;2.328;2023-05-18T06:26:45;12.20;99.90
70550;DHT22;58101;48.658;2.328;2023-05-18T06:29:11;12.30;98.50
70550;DHT22;58101;48.658;2.328;2023-05-18T06:31:37;12.40;98.60
70550;DHT22;58101;48.658;2.328;2023-05-18T06:34:02;12.50;97.30
70550;DHT22;58101;48.658;2.328;2023-05-18T06:36:28;12.50;95.80
70550;DHT22;58101;48.658;2.328;2023-05-18T06:38:54;12.60;96.50
70550;DHT22;58101;48.658;2.328;2023-05-18T06:41:19;12.70;95.70
70550;DHT22;58101;48.658;2.328;2023-05-18T06:43:46;12.80;94.70
70550;DHT22;58101;48.658;2.328;2023-05-18T06:46:23;13.00;93.90
70550;DHT22;58101;48.658;2.328;2023-05-18T06:48:53;13.00;92.30
70550;DHT22;58101;48.658;2.328;2023-05-18T06:51:19;13.10;92.60
70550;DHT22;58101;48.658;2.328;2023-05-18T06:53:44;13.20;92.10
70550;DHT22;58101;48.658;2.328;2023-05-18T06:56:11;13.30;92.30
70550;DHT22;58101;48.658;2.328;2023-05-18T06:58:38;13.40;90.90
70550;DHT22;58101;48.658;2.328;2023-05-18T07:01:03;13.50;90.70
70550;DHT22;58101;48.658;2.328;2023-05-18T07:03:30;13.60;90.00
70550;DHT22;58101;48.658;2.328;2023-05-18T07:05:57;13.80;88.30
70550;DHT22;58101;48.658;2.328;2023-05-18T07:08:22;13.90;85.10
70550;DHT22;58101;48.658;2.328;2023-05-18T07:10:49;14.10;80.60
70550;DHT22;58101;48.658;2.328;2023-05-18T07:13:15;14.20;77.50
70550;DHT22;58101;48.658;2.328;2023-05-18T07:15:40;14.30;79.50
70550;DHT22;58101;48.658;2.328;2023-05-18T07:18:06;14.50;75.70
70550;DHT22;58101;48.658;2.328;2023-05-18T07:20:31;14.60;73.90
70550;DHT22;58101;48.658;2.328;2023-05-18T07:22:59;14.70;71.60
70550;DHT22;58101;48.658;2.328;2023-05-18T07:25:27;14.80;70.20
70550;DHT22;58101;48.658;2.328;2023-05-18T07:27:53;14.90;67.90
70550;DHT22;58101;48.658;2.328;2023-05-18T07:30:20;14.90;66.70
70550;DHT22;58101;48.658;2.328;2023-05-18T07:32:46;15.10;68.50
70550;DHT22;58101;48.658;2.328;2023-05-18T07:35:11;15.20;68.30
70550;DHT22;58101;48.658;2.328;2023-05-18T07:37:37;15.40;66.80
70550;DHT22;58101;48.658;2.328;2023-05-18T07:40:04;15.50;67.80
70550;DHT22;58101;48.658;2.328;2023-05-18T07:42:33;15.50;65.20
70550;DHT22;58101;48.658;2.328;2023-05-18T07:44:59;15.60;64.10
70550;DHT22;58101;48.658;2.328;2023-05-18T07:47:24;15.70;61.80
70550;DHT22;58101;48.658;2.328;2023-05-18T07:49:50;15.90;61.50
70550;DHT22;58101;48.658;2.328;2023-05-18T07:52:15;15.90;61.60
70550;DHT22;58101;48.658;2.328;2023-05-18T07:54:41;16.10;61.60
70550;DHT22;58101;48.658;2.328;2023-05-18T07:57:07;16.30;63.10
70550;DHT22;58101;48.658;2.328;2023-05-18T07:59:32;16.50;61.50
70550;DHT22;58101;48.658;2.328;2023-05-18T08:01:58;16.70;58.70
70550;DHT22;58101;48.658;2.328;2023-05-18T08:04:24;16.80;57.50
70550;DHT22;58101;48.658;2.328;2023-05-18T08:06:50;17.00;55.80
70550;DHT22;58101;48.658;2.328;2023-05-18T08:09:19;17.10;56.40
70550;DHT22;58101;48.658;2.328;2023-05-18T08:11:46;17.30;57.60
70550;DHT22;58101;48.658;2.328;2023-05-18T08:14:12;17.40;55.00
70550;DHT22;58101;48.658;2.328;2023-05-18T08:16:37;17.50;54.10
70550;DHT22;58101;48.658;2.328;2023-05-18T08:19:04;17.70;54.60
70550;DHT22;58101;48.658;2.328;2023-05-18T08:21:30;17.80;53.20
70550;DHT22;58101;48.658;2.328;2023-05-18T08:23:55;17.90;51.40
70550;DHT22;58101;48.658;2.328;2023-05-18T08:26:21;17.80;50.90
70550;DHT22;58101;48.658;2.328;2023-05-18T08:28:47;17.90;51.50
70550;DHT22;58101;48.658;2.328;2023-05-18T08:31:13;18.10;51.50
70550;DHT22;58101;48.658;2.328;2023-05-18T08:33:39;18.20;50.50
70550;DHT22;58101;48.658;2.328;2023-05-18T08:36:07;18.30;51.30
70550;DHT22;58101;48.658;2.328;2023-05-18T08:38:33;18.40;50.20
70550;DHT22;58101;48.658;2.328;2023-05-18T08:43:52;18.50;48.60
70550;DHT22;58101;48.658;2.328;2023-05-18T08:46:20;18.60;48.30
70550;DHT22;58101;48.658;2.328;2023-05-18T08:48:46;18.60;48.10
70550;DHT22;58101;48.658;2.328;2023-05-18T08:51:18;18.70;48.30
70550;DHT22;58101;48.658;2.328;2023-05-18T08:53:46;18.70;46.80
70550;DHT22;58101;48.658;2.328;2023-05-18T08:56:16;18.50;46.50
70550;DHT22;58101;48.658;2.328;2023-05-18T08:58:49;18.20;46.90
70550;DHT22;58101;48.658;2.328;2023-05-18T09:01:15;18.00;48.10
70550;DHT22;58101;48.658;2.328;2023-05-18T09:03:43;17.90;49.40
70550;DHT22;58101;48.658;2.328;2023-05-18T09:06:10;18.00;49.90
70550;DHT22;58101;48.658;2.328;2023-05-18T09:08:36;18.30;49.00
70550;DHT22;58101;48.658;2.328;2023-05-18T09:11:03;18.60;48.70
70550;DHT22;58101;48.658;2.328;2023-05-18T09:13:29;19.10;46.80
70550;DHT22;58101;48.658;2.328;2023-05-18T09:15:55;19.30;44.10
70550;DHT22;58101;48.658;2.328;2023-05-18T09:18:20;19.70;44.00
70550;DHT22;58101;48.658;2.328;2023-05-18T09:20:46;20.70;43.70
70550;DHT22;58101;48.658;2.328;2023-05-18T09:23:12;22.00;41.70
70550;DHT22;58101;48.658;2.328;2023-05-18T09:25:45;23.30;38.20
70550;DHT22;58101;48.658;2.328;2023-05-18T09:28:45;24.60;36.10
70550;DHT22;58101;48.658;2.328;2023-05-18T09:31:19;25.50;34.20
70550;DHT22;58101;48.658;2.328;2023-05-18T09:33:46;26.40;31.30
70550;DHT22;58101;48.658;2.328;2023-05-18T09:36:13;26.60;29.10
70550;DHT22;58101;48.658;2.328;2023-05-18T09:38:44;27.10;29.60
70550;DHT22;58101;48.658;2.328;2023-05-18T09:41:15;27.50;28.00
70550;DHT22;58101;48.658;2.328;2023-05-18T09:43:43;27.80;27.70
70550;DHT22;58101;48.658;2.328;2023-05-18T09:46:10;28.20;27.20
70550;DHT22;58101;48.658;2.328;2023-05-18T09:48:42;28.40;26.60
70550;DHT22;58101;48.658;2.328;2023-05-18T09:51:10;28.60;27.00
70550;DHT22;58101;48.658;2.328;2023-05-18T09:53:36;29.00;26.20
70550;DHT22;58101;48.658;2.328;2023-05-18T09:56:05;29.00;25.70
70550;DHT22;58101;48.658;2.328;2023-05-18T09:58:32;29.00;25.80
70550;DHT22;58101;48.658;2.328;2023-05-18T10:01:00;29.30;25.90
70550;DHT22;58101;48.658;2.328;2023-05-18T10:03:31;29.40;25.50
70550;DHT22;58101;48.658;2.328;2023-05-18T10:06:11;29.40;24.30
70550;DHT22;58101;48.658;2.328;2023-05-18T10:08:41;29.40;24.40
70550;DHT22;58101;48.658;2.328;2023-05-18T10:11:09;29.40;23.90
70550;DHT22;58101;48.658;2.328;2023-05-18T10:13:35;29.30;22.90
70550;DHT22;58101;48.658;2.328;2023-05-18T10:16:02;29.00;24.20
70550;DHT22;58101;48.658;2.328;2023-05-18T10:18:36;29.00;24.60
70550;DHT22;58101;48.658;2.328;2023-05-18T10:21:04;29.00;23.70
70550;DHT22;58101;48.658;2.328;2023-05-18T10:23:36;29.10;24.10
70550;DHT22;58101;48.658;2.328;2023-05-18T10:26:05;28.90;24.20
70550;DHT22;58101;48.658;2.328;2023-05-18T10:28:40;28.80;24.20
70550;DHT22;58101;48.658;2.328;2023-05-18T10:31:06;28.90;24.60
70550;DHT22;58101;48.658;2.328;2023-05-18T10:33:35;29.10;24.20
70550;DHT22;58101;48.658;2.328;2023-05-18T10:36:03;28.90;24.30
70550;DHT22;58101;48.658;2.328;2023-05-18T10:38:32;28.70;23.80
70550;DHT22;58101;48.658;2.328;2023-05-18T10:41:03;28.40;23.60
70550;DHT22;58101;48.658;2.328;2023-05-18T10:43:32;28.00;24.80
70550;DHT22;58101;48.658;2.328;2023-05-18T10:46:00;27.90;25.10
70550;DHT22;58101;48.658;2.328;2023-05-18T10:48:27;27.90;25.70
70550;DHT22;58101;48.658;2.328;2023-05-18T10:50:55;27.50;26.20
70550;DHT22;58101;48.658;2.328;2023-05-18T10:53:24;27.30;26.10
70550;DHT22;58101;48.658;2.328;2023-05-18T10:55:56;27.10;26.90
70550;DHT22;58101;48.658;2.328;2023-05-18T10:58:25;27.00;26.40
70550;DHT22;58101;48.658;2.328;2023-05-18T11:00:57;26.90;27.10
70550;DHT22;58101;48.658;2.328;2023-05-18T11:03:24;26.70;26.20
70550;DHT22;58101;48.658;2.328;2023-05-18T11:08:27;26.40;26.30
70550;DHT22;58101;48.658;2.328;2023-05-18T11:11:05;26.10;26.80
70550;DHT22;58101;48.658;2.328;2023-05-18T11:13:34;26.00;27.30
70550;DHT22;58101;48.658;2.328;2023-05-18T11:16:06;25.90;26.70
70550;DHT22;58101;48.658;2.328;2023-05-18T11:18:49;25.80;27.20
70550;DHT22;58101;48.658;2.328;2023-05-18T11:24:31;26.10;27.80
70550;DHT22;58101;48.658;2.328;2023-05-18T11:27:01;26.20;27.20
70550;DHT22;58101;48.658;2.328;2023-05-18T11:29:40;26.20;26.60
70550;DHT22;58101;48.658;2.328;2023-05-18T11:32:22;26.00;26.60
70550;DHT22;58101;48.658;2.328;2023-05-18T11:34:49;25.90;27.80
70550;DHT22;58101;48.658;2.328;2023-05-18T11:40:43;26.20;27.30
70550;DHT22;58101;48.658;2.328;2023-05-18T11:43:16;26.10;26.60
70550;DHT22;58101;48.658;2.328;2023-05-18T11:45:58;26.10;26.60
70550;DHT22;58101;48.658;2.328;2023-05-18T11:48:25;26.00;26.10
70550;DHT22;58101;48.658;2.328;2023-05-18T11:50:54;25.90;27.30
70550;DHT22;58101;48.658;2.328;2023-05-18T11:53:23;25.80;29.20
70550;DHT22;58101;48.658;2.328;2023-05-18T11:55:51;25.80;26.80
70550;DHT22;58101;48.658;2.328;2023-05-18T11:58:19;25.70;27.00
70550;DHT22;58101;48.658;2.328;2023-05-18T12:00:45;25.70;27.60
70550;DHT22;58101;48.658;2.328;2023-05-18T12:03:13;25.70;27.60
70550;DHT22;58101;48.658;2.328;2023-05-18T12:05:41;25.60;27.40
70550;DHT22;58101;48.658;2.328;2023-05-18T12:08:16;25.50;27.70
70550;DHT22;58101;48.658;2.328;2023-05-18T12:10:47;25.40;27.40
70550;DHT22;58101;48.658;2.328;2023-05-18T12:13:15;25.20;27.40
70550;DHT22;58101;48.658;2.328;2023-05-18T12:15:43;25.00;26.40
70550;DHT22;58101;48.658;2.328;2023-05-18T12:18:09;24.90;27.10
70550;DHT22;58101;48.658;2.328;2023-05-18T12:20:38;24.80;27.90
70550;DHT22;58101;48.658;2.328;2023-05-18T12:23:04;24.80;28.00
70550;DHT22;58101;48.658;2.328;2023-05-18T12:25:30;24.50;28.60
70550;DHT22;58101;48.658;2.328;2023-05-18T12:27:55;24.50;29.10
70550;DHT22;58101;48.658;2.328;2023-05-18T12:30:26;24.40;28.40
70550;DHT22;58101;48.658;2.328;2023-05-18T12:32:59;24.50;28.30
70550;DHT22;58101;48.658;2.328;2023-05-18T12:35:27;24.60;27.50
70550;DHT22;58101;48.658;2.328;2023-05-18T12:37:54;24.60;26.60
70550;DHT22;58101;48.658;2.328;2023-05-18T12:40:21;24.50;26.60
70550;DHT22;58101;48.658;2.328;2023-05-18T12:42:53;24.30;27.90
70550;DHT22;58101;48.658;2.328;2023-05-18T12:45:22;23.90;28.30
70550;DHT22;58101;48.658;2.328;2023-05-18T12:47:49;23.60;28.50
70550;DHT22;58101;48.658;2.328;2023-05-18T12:50:20;23.30;29.60
70550;DHT22;58101;48.658;2.328;2023-05-18T12:52:47;23.20;30.00
70550;DHT22;58101;48.658;2.328;2023-05-18T12:55:20;23.20;30.10
70550;DHT22;58101;48.658;2.328;2023-05-18T12:58:05;23.20;30.20
70550;DHT22;58101;48.658;2.328;2023-05-18T13:00:37;23.40;29.50
70550;DHT22;58101;48.658;2.328;2023-05-18T13:05:32;23.60;29.50
70550;DHT22;58101;48.658;2.328;2023-05-18T13:07:57;23.60;30.00
70550;DHT22;58101;48.658;2.328;2023-05-18T13:10:23;23.70;28.90
70550;DHT22;58101;48.658;2.328;2023-05-18T13:12:50;23.80;28.40
70550;DHT22;58101;48.658;2.328;2023-05-18T13:15:32;23.70;27.70
70550;DHT22;58101;48.658;2.328;2023-05-18T13:18:01;23.70;28.80
70550;DHT22;58101;48.658;2.328;2023-05-18T13:20:38;23.60;28.30
70550;DHT22;58101;48.658;2.328;2023-05-18T13:23:11;23.50;29.90
70550;DHT22;58101;48.658;2.328;2023-05-18T13:25:38;23.40;28.40
70550;DHT22;58101;48.658;2.328;2023-05-18T13:28:04;23.20;30.10
70550;DHT22;58101;48.658;2.328;2023-05-18T13:30:31;22.80;29.70
70550;DHT22;58101;48.658;2.328;2023-05-18T13:32:56;22.50;30.50
70550;DHT22;58101;48.658;2.328;2023-05-18T13:35:22;22.40;30.40
70550;DHT22;58101;48.658;2.328;2023-05-18T13:37:49;22.20;30.90
70550;DHT22;58101;48.658;2.328;2023-05-18T13:40:15;22.20;31.80
70550;DHT22;58101;48.658;2.328;2023-05-18T13:42:42;22.10;32.50
70550;DHT22;58101;48.658;2.328;2023-05-18T13:45:11;22.10;33.40
70550;DHT22;58101;48.658;2.328;2023-05-18T13:47:37;22.00;32.40
70550;DHT22;58101;48.658;2.328;2023-05-18T13:50:04;22.00;33.40
70550;DHT22;58101;48.658;2.328;2023-05-18T13:52:30;22.00;34.20
70550;DHT22;58101;48.658;2.328;2023-05-18T13:54:56;21.90;35.30
70550;DHT22;58101;48.658;2.328;2023-05-18T13:57:21;21.90;33.40
70550;DHT22;58101;48.658;2.328;2023-05-18T13:59:51;21.80;35.00
70550;DHT22;58101;48.658;2.328;2023-05-18T14:02:17;21.90;35.10
70550;DHT22;58101;48.658;2.328;2023-05-18T14:04:43;22.10;34.70
70550;DHT22;58101;48.658;2.328;2023-05-18T14:07:29;22.20;34.50
70550;DHT22;58101;48.658;2.328;2023-05-18T14:09:55;22.30;33.70
70550;DHT22;58101;48.658;2.328;2023-05-18T14:12:20;22.20;33.80
70550;DHT22;58101;48.658;2.328;2023-05-18T14:14:46;22.20;34.00
70550;DHT22;58101;48.658;2.328;2023-05-18T14:17:12;22.30;35.70
70550;DHT22;58101;48.658;2.328;2023-05-18T14:19:38;22.40;36.50
70550;DHT22;58101;48.658;2.328;2023-05-18T14:22:04;22.60;34.80
70550;DHT22;58101;48.658;2.328;2023-05-18T14:24:32;22.50;35.40
70550;DHT22;58101;48.658;2.328;2023-05-18T14:26:58;22.40;35.00
70550;DHT22;58101;48.658;2.328;2023-05-18T14:29:23;22.30;36.70
70550;DHT22;58101;48.658;2.328;2023-05-18T14:31:49;22.30;35.00
70550;DHT22;58101;48.658;2.328;2023-05-18T14:34:15;22.30;35.70
70550;DHT22;58101;48.658;2.328;2023-05-18T14:36:41;22.10;35.50
70550;DHT22;58101;48.658;2.328;2023-05-18T14:39:06;22.10;35.40
70550;DHT22;58101;48.658;2.328;2023-05-18T14:41:32;22.00;34.50
70550;DHT22;58101;48.658;2.328;2023-05-18T14:43:57;22.00;34.90
70550;DHT22;58101;48.658;2.328;2023-05-18T14:46:23;21.90;34.60
70550;DHT22;58101;48.658;2.328;2023-05-18T14:48:49;21.80;35.60
70550;DHT22;58101;48.658;2.328;2023-05-18T14:51:14;21.80;36.70
70550;DHT22;58101;48.658;2.328;2023-05-18T14:53:42;21.80;35.70
70550;DHT22;58101;48.658;2.328;2023-05-18T14:56:08;21.80;34.60
70550;DHT22;58101;48.658;2.328;2023-05-18T14:58:34;21.80;35.10
70550;DHT22;58101;48.658;2.328;2023-05-18T15:01:00;21.90;34.80
70550;DHT22;58101;48.658;2.328;2023-05-18T15:03:26;21.90;33.30
70550;DHT22;58101;48.658;2.328;2023-05-18T15:05:52;21.80;32.80
70550;DHT22;58101;48.658;2.328;2023-05-18T15:08:17;21.90;32.80
70550;DHT22;58101;48.658;2.328;2023-05-18T15:10:43;21.80;32.40
70550;DHT22;58101;48.658;2.328;2023-05-18T15:13:09;21.80;30.10
70550;DHT22;58101;48.658;2.328;2023-05-18T15:15:35;21.70;30.20
70550;DHT22;58101;48.658;2.328;2023-05-18T15:18:01;21.40;29.20
70550;DHT22;58101;48.658;2.328;2023-05-18T15:20:26;21.20;32.00
70550;DHT22;58101;48.658;2.328;2023-05-18T15:22:52;21.10;31.00
70550;DHT22;58101;48.658;2.328;2023-05-18T15:25:18;21.10;32.50
70550;DHT22;58101;48.658;2.328;2023-05-18T15:27:43;21.00;32.50
70550;DHT22;58101;48.658;2.328;2023-05-18T15:30:10;20.80;32.80
70550;DHT22;58101;48.658;2.328;2023-05-18T15:32:37;20.80;33.80
70550;DHT22;58101;48.658;2.328;2023-05-18T15:35:03;20.70;32.40
70550;DHT22;58101;48.658;2.328;2023-05-18T15:37:29;20.70;33.90
70550;DHT22;58101;48.658;2.328;2023-05-18T15:39:55;20.70;34.10
70550;DHT22;58101;48.658;2.328;2023-05-18T15:42:20;20.70;35.80
70550;DHT22;58101;48.658;2.328;2023-05-18T15:44:46;20.60;36.80
70550;DHT22;58101;48.658;2.328;2023-05-18T15:47:11;20.60;37.40
70550;DHT22;58101;48.658;2.328;2023-05-18T15:49:37;20.60;37.50
70550;DHT22;58101;48.658;2.328;2023-05-18T15:52:03;20.70;37.20
70550;DHT22;58101;48.658;2.328;2023-05-18T15:54:28;20.70;35.70